createdAt,value
2018-09-30T00:01:54.642Z,99.20
2018-09-30T00:04:28.691Z,99.30
2018-09-30T00:07:02.874Z,99.40
2018-09-30T00:09:37.301Z,99.60
2018-09-30T00:12:11.461Z,99.50
2018-09-30T00:14:46.235Z,99.40
2018-09-30T00:17:20.543Z,99.90
2018-09-30T00:19:54.637Z,99.90
2018-09-30T00:22:29.261Z,99.90
2018-09-30T00:25:08.820Z,99.90
2018-09-30T00:27:44.645Z,99.90
2018-09-30T00:30:18.837Z,99.90
2018-09-30T00:32:52.909Z,99.90
2018-09-30T00:35:27.762Z,99.90
2018-09-30T00:38:01.857Z,99.90
2018-09-30T00:40:35.903Z,99.90
2018-09-30T00:43:09.950Z,99.90
2018-09-30T00:45:44.739Z,99.90
2018-09-30T00:48:18.838Z,99.90
2018-09-30T00:50:53.934Z,99.90
2018-09-30T00:53:27.775Z,99.90
2018-09-30T00:56:01.790Z,99.90
2018-09-30T00:58:36.871Z,99.90
2018-09-30T01:01:11.853Z,99.90
2018-09-30T01:03:45.844Z,99.90
2018-09-30T01:06:20.226Z,99.90
2018-09-30T01:08:55.526Z,99.90
2018-09-30T01:11:29.641Z,99.90
2018-09-30T01:14:04.266Z,99.90
2018-09-30T01:16:38.429Z,99.90
2018-09-30T01:19:13.180Z,99.90
2018-09-30T01:21:47.315Z,99.90
2018-09-30T01:24:21.834Z,99.90
2018-09-30T01:26:56.715Z,99.90
2018-09-30T01:29:31.271Z,99.90
2018-09-30T01:32:05.714Z,99.90
2018-09-30T01:34:39.821Z,99.90
2018-09-30T01:37:13.963Z,99.90
2018-09-30T01:39:48.326Z,99.90
2018-09-30T01:42:22.719Z,99.90
2018-09-30T01:44:57.004Z,99.90
2018-09-30T01:47:31.065Z,99.90
2018-09-30T01:50:05.164Z,99.90
2018-09-30T01:52:56.951Z,99.90
2018-09-30T01:55:31.058Z,99.90
2018-09-30T01:58:05.109Z,99.90
2018-09-30T02:00:40.160Z,99.90
2018-09-30T02:03:14.359Z,99.90
2018-09-30T02:05:48.480Z,99.90
2018-09-30T02:08:22.515Z,99.90
2018-09-30T02:10:57.301Z,99.90
2018-09-30T02:13:31.837Z,99.90
2018-09-30T02:16:06.190Z,99.90
2018-09-30T02:18:40.191Z,99.90
2018-09-30T02:21:14.410Z,99.90
2018-09-30T02:23:49.694Z,99.90
2018-09-30T02:26:25.135Z,99.90
2018-09-30T02:28:59.611Z,99.90
2018-09-30T02:31:33.663Z,99.90
2018-09-30T02:34:07.866Z,99.90
2018-09-30T02:36:41.821Z,99.90
2018-09-30T02:39:15.699Z,99.90
2018-09-30T02:41:49.953Z,99.90
2018-09-30T02:44:24.376Z,99.90
2018-09-30T02:47:01.593Z,99.90
2018-09-30T02:49:36.866Z,99.90
2018-09-30T02:52:11.240Z,99.90
2018-09-30T02:54:45.407Z,99.90
2018-09-30T02:57:19.591Z,99.90
2018-09-30T02:59:54.449Z,99.90
2018-09-30T03:02:28.698Z,99.90
2018-09-30T03:05:02.789Z,99.90
2018-09-30T03:07:43.155Z,99.90
2018-09-30T03:10:17.148Z,99.90
2018-09-30T03:12:51.254Z,99.90
2018-09-30T03:15:25.973Z,99.90
2018-09-30T03:18:00.869Z,99.90
2018-09-30T03:20:35.051Z,99.90
2018-09-30T03:23:09.884Z,99.90
2018-09-30T03:25:43.755Z,99.90
2018-09-30T03:28:17.937Z,99.90
2018-09-30T03:30:51.930Z,99.90
2018-09-30T03:33:26.633Z,99.90
2018-09-30T03:36:00.458Z,99.90
2018-09-30T03:38:34.626Z,99.90
2018-09-30T03:41:08.616Z,99.90
2018-09-30T03:43:43.615Z,99.90
2018-09-30T03:46:21.741Z,99.90
2018-09-30T03:48:55.901Z,99.90
2018-09-30T03:51:30.659Z,99.90
2018-09-30T03:54:04.712Z,99.90
2018-09-30T03:56:39.480Z,99.90
2018-09-30T03:59:13.465Z,99.90
2018-09-30T04:01:47.204Z,99.90
2018-09-30T04:04:21.302Z,99.90
2018-09-30T04:06:56.069Z,99.90
2018-09-30T04:09:30.738Z,99.90
2018-09-30T04:12:05.325Z,99.90
2018-09-30T04:14:39.519Z,99.90
2018-09-30T04:17:14.451Z,99.90
2018-09-30T04:19:48.704Z,99.90
2018-09-30T04:22:29.777Z,99.90
2018-09-30T04:25:04.254Z,99.90
2018-09-30T04:27:38.319Z,99.90
2018-09-30T04:30:12.474Z,99.90
2018-09-30T04:32:47.890Z,99.90
2018-09-30T04:35:22.085Z,99.90
2018-09-30T04:37:56.160Z,99.90
2018-09-30T04:40:31.199Z,99.90
2018-09-30T04:43:05.879Z,99.90
2018-09-30T04:45:40.564Z,99.90
2018-09-30T04:48:15.444Z,99.90
2018-09-30T04:50:49.525Z,99.90
2018-09-30T04:53:23.885Z,99.90
2018-09-30T04:55:57.781Z,99.90
2018-09-30T04:58:32.471Z,99.90
2018-09-30T05:01:06.811Z,99.90
2018-09-30T05:03:40.895Z,99.90
2018-09-30T05:06:15.384Z,99.90
2018-09-30T05:08:49.495Z,99.90
2018-09-30T05:11:23.874Z,99.90
2018-09-30T05:13:58.370Z,99.90
2018-09-30T05:16:33.027Z,99.90
2018-09-30T05:19:07.044Z,99.90
2018-09-30T05:21:40.948Z,99.90
2018-09-30T05:24:15.664Z,99.90
2018-09-30T05:26:50.314Z,99.90
2018-09-30T05:29:24.833Z,99.90
2018-09-30T05:31:58.985Z,99.90
2018-09-30T05:34:33.195Z,99.90
2018-09-30T05:37:07.919Z,99.90
2018-09-30T05:39:42.383Z,99.90
2018-09-30T05:42:16.570Z,99.90
2018-09-30T05:44:50.545Z,99.90
2018-09-30T05:47:25.525Z,99.90
2018-09-30T05:50:06.459Z,99.90
2018-09-30T05:52:41.604Z,99.90
2018-09-30T05:55:15.875Z,99.90
2018-09-30T05:57:50.004Z,99.90
2018-09-30T06:00:24.641Z,99.90
2018-09-30T06:02:58.622Z,99.90
2018-09-30T06:05:32.584Z,99.90
2018-09-30T06:08:06.806Z,99.90
2018-09-30T06:10:41.244Z,99.90
2018-09-30T06:13:15.316Z,99.90
2018-09-30T06:15:49.850Z,99.90
2018-09-30T06:18:24.205Z,99.90
2018-09-30T06:20:58.500Z,99.90
2018-09-30T06:23:32.614Z,99.90
2018-09-30T06:26:07.294Z,99.90
2018-09-30T06:28:41.469Z,99.90
2018-09-30T06:31:15.648Z,99.90
2018-09-30T06:33:50.108Z,99.90
2018-09-30T06:36:24.124Z,99.90
2018-09-30T06:38:58.408Z,99.90
2018-09-30T06:41:32.535Z,99.90
2018-09-30T06:44:07.471Z,99.90
2018-09-30T06:46:42.359Z,99.90
2018-09-30T06:49:16.914Z,99.90
2018-09-30T06:51:51.760Z,99.90
2018-09-30T06:54:26.374Z,99.90
2018-09-30T06:57:00.585Z,99.90
2018-09-30T06:59:34.509Z,99.90
2018-09-30T07:02:08.704Z,99.90
2018-09-30T07:04:42.819Z,99.90
2018-09-30T07:07:17.149Z,99.90
2018-09-30T07:09:51.790Z,99.90
2018-09-30T07:12:25.984Z,99.90
2018-09-30T07:15:00.708Z,99.90
2018-09-30T07:17:34.604Z,99.90
2018-09-30T07:20:08.886Z,99.90
2018-09-30T07:22:43.188Z,99.90
2018-09-30T07:25:17.185Z,99.90
2018-09-30T07:27:51.451Z,99.90
2018-09-30T07:30:25.702Z,99.90
2018-09-30T07:33:00.776Z,99.90
2018-09-30T07:35:35.006Z,99.90
2018-09-30T07:38:09.556Z,99.90
2018-09-30T07:40:43.489Z,99.90
2018-09-30T07:43:17.656Z,99.90
2018-09-30T07:45:52.665Z,99.90
2018-09-30T07:48:26.774Z,99.90
2018-09-30T07:51:01.649Z,99.90
2018-09-30T07:53:36.097Z,99.90
2018-09-30T07:56:12.739Z,99.90
2018-09-30T07:58:48.017Z,99.90
2018-09-30T08:01:22.431Z,99.60
2018-09-30T08:03:57.402Z,99.40
2018-09-30T08:06:31.923Z,98.00
2018-09-30T08:09:08.248Z,95.50
2018-09-30T08:11:42.939Z,95.10
2018-09-30T08:14:17.655Z,93.10
2018-09-30T08:16:52.214Z,93.60
2018-09-30T08:19:26.282Z,94.00
2018-09-30T08:22:00.426Z,91.90
2018-09-30T08:24:35.360Z,91.80
2018-09-30T08:27:10.234Z,89.70
2018-09-30T08:29:44.231Z,88.40
2018-09-30T08:32:18.383Z,88.30
2018-09-30T08:34:52.697Z,85.10
2018-09-30T08:37:32.249Z,86.90
2018-09-30T08:40:07.208Z,87.80
2018-09-30T08:42:41.357Z,86.90
2018-09-30T08:45:15.939Z,83.80
2018-09-30T08:47:50.775Z,79.10
2018-09-30T08:50:24.709Z,78.50
2018-09-30T08:52:59.360Z,75.20
2018-09-30T08:55:34.440Z,73.10
2018-09-30T08:58:09.786Z,73.20
2018-09-30T09:00:43.916Z,70.80
2018-09-30T09:03:18.101Z,70.30
2018-09-30T09:05:52.281Z,69.80
2018-09-30T09:08:26.558Z,67.40
2018-09-30T09:11:00.545Z,67.60
2018-09-30T09:13:34.736Z,68.10
2018-09-30T09:16:09.453Z,70.40
2018-09-30T09:18:44.517Z,72.40
2018-09-30T09:21:19.522Z,70.20
2018-09-30T09:23:53.786Z,66.00
2018-09-30T09:26:28.936Z,65.70
2018-09-30T09:29:03.151Z,64.80
2018-09-30T09:31:38.025Z,64.50
2018-09-30T09:34:12.677Z,63.10
2018-09-30T09:36:46.755Z,60.50
2018-09-30T09:39:20.914Z,61.10
2018-09-30T09:41:55.989Z,60.30
2018-09-30T09:44:30.444Z,59.40
2018-09-30T09:47:04.789Z,59.90
2018-09-30T09:49:39.231Z,59.20
2018-09-30T09:52:13.647Z,60.00
2018-09-30T09:54:47.907Z,59.10
2018-09-30T09:57:22.396Z,58.80
2018-09-30T09:59:57.060Z,61.10
2018-09-30T10:02:31.297Z,60.30
2018-09-30T10:05:05.479Z,59.10
2018-09-30T10:07:39.891Z,57.00
2018-09-30T10:10:14.470Z,58.10
2018-09-30T10:12:48.401Z,56.90
2018-09-30T10:15:22.744Z,57.60
2018-09-30T10:17:57.945Z,57.80
2018-09-30T10:20:32.676Z,56.80
2018-09-30T10:23:07.146Z,56.90
2018-09-30T10:25:41.081Z,56.90
2018-09-30T10:28:15.802Z,57.40
2018-09-30T10:30:50.614Z,56.80
2018-09-30T10:33:25.519Z,58.80
2018-09-30T10:36:00.430Z,57.60
2018-09-30T10:38:34.513Z,56.70
2018-09-30T10:41:09.525Z,57.60
2018-09-30T10:43:43.527Z,57.70
2018-09-30T10:46:17.907Z,57.90
2018-09-30T10:48:52.297Z,57.40
2018-09-30T10:51:26.690Z,59.50
2018-09-30T10:54:00.857Z,57.20
2018-09-30T10:56:40.846Z,57.10
2018-09-30T10:59:15.133Z,57.80
2018-09-30T11:01:49.796Z,58.70
2018-09-30T11:04:24.490Z,59.00
2018-09-30T11:06:59.110Z,56.00
2018-09-30T11:09:33.477Z,55.10
2018-09-30T11:12:07.965Z,55.50
2018-09-30T11:14:42.169Z,57.30
2018-09-30T11:17:16.635Z,56.30
2018-09-30T11:19:50.634Z,55.30
2018-09-30T11:22:24.872Z,54.80
2018-09-30T11:24:59.195Z,54.80
2018-09-30T11:27:34.213Z,55.70
2018-09-30T11:30:11.129Z,56.30
2018-09-30T11:32:45.296Z,55.70
2018-09-30T11:35:19.727Z,55.40
2018-09-30T11:37:54.020Z,55.70
2018-09-30T11:40:28.820Z,54.60
2018-09-30T11:43:03.234Z,53.70
2018-09-30T11:45:37.442Z,55.10
2018-09-30T11:48:13.995Z,53.90
2018-09-30T11:50:47.914Z,53.30
2018-09-30T11:53:22.360Z,52.90
2018-09-30T11:55:57.160Z,54.00
2018-09-30T11:58:32.175Z,52.90
2018-09-30T12:01:06.967Z,54.00
2018-09-30T12:03:41.125Z,54.10
2018-09-30T12:06:15.820Z,52.50
2018-09-30T12:08:49.832Z,53.50
2018-09-30T12:11:24.246Z,52.40
2018-09-30T12:13:58.155Z,54.10
2018-09-30T12:16:32.800Z,51.30
2018-09-30T12:19:07.386Z,51.80
2018-09-30T12:21:41.975Z,52.40
2018-09-30T12:24:16.199Z,52.90
2018-09-30T12:26:50.772Z,52.70
2018-09-30T12:29:24.915Z,51.70
2018-09-30T12:31:59.286Z,51.20
2018-09-30T12:34:34.461Z,51.90
2018-09-30T12:37:08.855Z,50.90
2018-09-30T12:39:43.953Z,51.40
2018-09-30T12:42:19.024Z,49.90
2018-09-30T12:44:53.365Z,50.90
2018-09-30T12:47:28.272Z,49.70
2018-09-30T12:50:02.476Z,48.40
2018-09-30T12:52:37.362Z,49.80
2018-09-30T12:55:11.775Z,49.60
2018-09-30T12:57:47.116Z,47.90
2018-09-30T13:00:21.821Z,47.80
2018-09-30T13:02:56.118Z,46.40
2018-09-30T13:05:30.694Z,46.30
2018-09-30T13:08:06.161Z,45.40
2018-09-30T13:10:41.179Z,45.80
2018-09-30T13:13:15.420Z,45.90
2018-09-30T13:15:50.058Z,46.40
2018-09-30T13:18:25.159Z,45.90
2018-09-30T13:20:59.651Z,44.30
2018-09-30T13:23:33.779Z,45.10
2018-09-30T13:26:08.167Z,43.90
2018-09-30T13:28:42.999Z,44.50
2018-09-30T13:31:16.944Z,45.30
2018-09-30T13:33:51.180Z,44.40
2018-09-30T13:36:25.735Z,43.30
2018-09-30T13:39:00.647Z,42.10
2018-09-30T13:41:35.161Z,41.50
2018-09-30T13:44:09.507Z,39.50
2018-09-30T13:46:44.045Z,40.20
2018-09-30T13:49:19.519Z,39.50
2018-09-30T13:51:53.800Z,41.20
2018-09-30T13:54:31.352Z,40.20
2018-09-30T13:57:06.761Z,40.30
2018-09-30T13:59:41.471Z,38.80
2018-09-30T14:02:15.594Z,38.60
2018-09-30T14:04:49.695Z,38.00
2018-09-30T14:07:24.326Z,38.50
2018-09-30T14:09:58.890Z,38.20
2018-09-30T14:12:33.705Z,38.70
2018-09-30T14:15:08.342Z,38.50
2018-09-30T14:17:42.631Z,37.80
2018-09-30T14:20:16.792Z,36.70
2018-09-30T14:22:51.311Z,37.40
2018-09-30T14:25:26.432Z,37.00
2018-09-30T14:28:00.830Z,37.20
2018-09-30T14:30:35.310Z,38.30
2018-09-30T14:33:09.928Z,38.80
2018-09-30T14:35:44.330Z,36.40
2018-09-30T14:38:18.811Z,37.40
2018-09-30T14:40:53.326Z,37.50
2018-09-30T14:43:27.810Z,37.50
2018-09-30T14:46:02.082Z,37.10
2018-09-30T14:48:36.509Z,37.00
2018-09-30T14:51:10.711Z,37.30
2018-09-30T14:53:45.856Z,37.80
2018-09-30T14:56:19.834Z,37.80
2018-09-30T14:58:54.787Z,37.70
2018-09-30T15:01:29.506Z,37.80
2018-09-30T15:04:04.943Z,38.60
2018-09-30T15:06:39.394Z,38.80
2018-09-30T15:09:13.984Z,38.10
2018-09-30T15:11:48.267Z,39.30
2018-09-30T15:14:22.530Z,38.80
2018-09-30T15:16:56.798Z,38.60
2018-09-30T15:19:34.013Z,37.90
2018-09-30T15:22:07.982Z,37.70
2018-09-30T15:24:42.809Z,37.40
2018-09-30T15:27:17.168Z,37.90
2018-09-30T15:29:51.581Z,38.10
2018-09-30T15:32:26.098Z,37.40
2018-09-30T15:35:00.566Z,37.30
2018-09-30T15:37:34.526Z,36.40
2018-09-30T15:40:09.406Z,34.60
2018-09-30T15:42:44.176Z,34.00
2018-09-30T15:45:18.669Z,33.60
2018-09-30T15:47:52.912Z,34.90
2018-09-30T15:50:27.587Z,34.30
2018-09-30T15:53:01.996Z,35.30
2018-09-30T15:55:37.032Z,35.30
2018-09-30T15:58:12.346Z,34.70
2018-09-30T16:00:47.159Z,34.90
2018-09-30T16:03:21.546Z,34.20
2018-09-30T16:05:56.017Z,34.00
2018-09-30T16:08:30.339Z,35.00
2018-09-30T16:11:04.883Z,35.90
2018-09-30T16:13:39.427Z,37.90
2018-09-30T16:16:13.694Z,40.60
2018-09-30T16:18:48.377Z,39.40
2018-09-30T16:21:23.641Z,39.60
2018-09-30T16:23:58.656Z,41.50
2018-09-30T16:26:32.790Z,43.60
2018-09-30T16:29:06.874Z,45.40
2018-09-30T16:31:41.474Z,46.30
2018-09-30T16:34:16.123Z,47.40
2018-09-30T16:36:50.653Z,48.50
2018-09-30T16:39:24.530Z,48.60
2018-09-30T16:41:58.749Z,49.90
2018-09-30T16:44:33.009Z,50.00
2018-09-30T16:47:07.212Z,50.90
2018-09-30T16:49:41.358Z,52.20
2018-09-30T16:52:15.596Z,52.20
2018-09-30T16:54:49.406Z,53.30
2018-09-30T16:57:23.875Z,53.90
2018-09-30T16:59:58.484Z,55.00
2018-09-30T17:02:33.189Z,55.10
2018-09-30T17:05:08.031Z,55.20
2018-09-30T17:07:42.565Z,55.20
2018-09-30T17:10:18.216Z,55.20
2018-09-30T17:12:52.755Z,55.90
2018-09-30T17:15:26.913Z,56.80
2018-09-30T17:18:01.157Z,57.20
2018-09-30T17:20:35.553Z,57.50
2018-09-30T17:23:09.638Z,58.10
2018-09-30T17:25:44.022Z,58.80
2018-09-30T17:28:18.360Z,59.90
2018-09-30T17:30:52.612Z,59.90
2018-09-30T17:33:27.120Z,60.20
2018-09-30T17:36:02.014Z,61.00
2018-09-30T17:38:36.876Z,61.30
2018-09-30T17:41:11.970Z,61.70
2018-09-30T17:43:46.437Z,62.80
2018-09-30T17:46:20.731Z,63.60
2018-09-30T17:48:55.375Z,64.50
2018-09-30T17:51:30.415Z,64.90
2018-09-30T17:54:04.888Z,65.60
2018-09-30T17:56:39.114Z,66.00
2018-09-30T17:59:13.408Z,66.60
2018-09-30T18:01:47.967Z,66.80
2018-09-30T18:04:22.899Z,67.20
2018-09-30T18:06:57.155Z,68.00
2018-09-30T18:09:31.433Z,68.70
2018-09-30T18:12:05.915Z,69.20
2018-09-30T18:14:40.088Z,69.80
2018-09-30T18:17:14.706Z,70.40
2018-09-30T18:19:48.814Z,71.30
2018-09-30T18:22:22.955Z,72.40
2018-09-30T18:24:57.379Z,71.90
2018-09-30T18:27:31.550Z,72.50
2018-09-30T18:30:06.527Z,72.50
2018-09-30T18:32:40.507Z,72.10
2018-09-30T18:35:14.745Z,71.90
2018-09-30T18:37:49.240Z,72.30
2018-09-30T18:40:23.877Z,73.10
2018-09-30T18:42:58.942Z,73.60
2018-09-30T18:45:33.511Z,72.90
2018-09-30T18:48:08.888Z,74.40
2018-09-30T18:50:43.462Z,75.30
2018-09-30T18:53:18.167Z,74.80
2018-09-30T18:55:52.953Z,75.90
2018-09-30T18:58:27.542Z,76.00
2018-09-30T19:01:03.484Z,77.00
2018-09-30T19:03:38.265Z,78.40
2018-09-30T19:06:13.036Z,79.40
2018-09-30T19:08:47.752Z,79.30
2018-09-30T19:11:22.657Z,79.30
2018-09-30T19:13:57.451Z,80.50
2018-09-30T19:16:32.156Z,81.20
2018-09-30T19:19:06.830Z,82.50
2018-09-30T19:21:41.900Z,83.30
2018-09-30T19:24:16.678Z,83.90
2018-09-30T19:26:51.097Z,86.20
2018-09-30T19:29:25.850Z,87.20
2018-09-30T19:32:01.020Z,87.80
2018-09-30T19:34:35.161Z,88.40
2018-09-30T19:37:10.303Z,88.70
2018-09-30T19:39:44.595Z,89.10
2018-09-30T19:42:18.787Z,89.50
2018-09-30T19:44:53.381Z,90.00
2018-09-30T19:47:32.449Z,90.00
2018-09-30T19:50:08.435Z,90.50
2018-09-30T19:52:42.597Z,90.60
2018-09-30T19:55:17.988Z,90.90
2018-09-30T19:57:52.151Z,91.00
2018-09-30T20:00:26.949Z,91.40
2018-09-30T20:03:01.177Z,91.80
2018-09-30T20:05:35.324Z,92.00
2018-09-30T20:08:21.756Z,92.20
2018-09-30T20:10:55.986Z,92.40
2018-09-30T20:13:30.026Z,92.70
2018-09-30T20:16:04.982Z,93.20
2018-09-30T20:18:39.051Z,93.20
2018-09-30T20:21:14.146Z,93.50
2018-09-30T20:23:48.341Z,94.00
2018-09-30T20:26:22.730Z,93.60
2018-09-30T20:28:57.457Z,93.80
2018-09-30T20:31:32.097Z,94.10
2018-09-30T20:34:06.326Z,94.50
2018-09-30T20:36:40.551Z,94.90
2018-09-30T20:39:14.566Z,95.10
2018-09-30T20:41:48.811Z,95.30
2018-09-30T20:44:23.242Z,95.50
2018-09-30T20:46:57.374Z,95.70
2018-09-30T20:49:31.679Z,95.90
2018-09-30T20:52:06.335Z,96.10
2018-09-30T20:54:40.429Z,96.50
2018-09-30T20:57:15.230Z,97.10
2018-09-30T20:59:49.403Z,97.50
2018-09-30T21:02:23.599Z,97.40
2018-09-30T21:04:59.095Z,97.80
2018-09-30T21:07:33.627Z,97.80
2018-09-30T21:10:08.376Z,97.80
2018-09-30T21:12:43.215Z,97.90
2018-09-30T21:15:17.631Z,97.90
2018-09-30T21:17:52.516Z,98.10
2018-09-30T21:20:27.003Z,98.30
2018-09-30T21:23:01.536Z,98.30
2018-09-30T21:25:36.433Z,98.40
2018-09-30T21:28:12.009Z,98.40
2018-09-30T21:30:48.540Z,98.80
2018-09-30T21:33:23.689Z,98.60
2018-09-30T21:35:58.337Z,98.70
2018-09-30T21:38:32.859Z,98.80
2018-09-30T21:41:08.145Z,98.70
2018-09-30T21:43:42.434Z,98.70
2018-09-30T21:46:16.763Z,98.80
2018-09-30T21:48:51.237Z,98.70
2018-09-30T21:51:26.402Z,98.90
2018-09-30T21:54:01.016Z,99.00
2018-09-30T21:56:36.346Z,99.10
2018-09-30T21:59:10.862Z,99.10
2018-09-30T22:01:45.302Z,99.10
2018-09-30T22:04:19.715Z,99.10
2018-09-30T22:06:55.202Z,99.20
2018-09-30T22:09:29.522Z,99.30
2018-09-30T22:12:03.887Z,99.50
2018-09-30T22:14:38.621Z,99.60
2018-09-30T22:17:12.911Z,99.50
2018-09-30T22:19:47.210Z,99.80
2018-09-30T22:22:21.324Z,99.80
2018-09-30T22:24:55.732Z,99.90
2018-09-30T22:27:29.917Z,99.90
2018-09-30T22:30:04.665Z,99.90
2018-09-30T22:32:39.105Z,99.90
2018-09-30T22:35:13.385Z,99.90
2018-09-30T22:37:47.837Z,99.90
2018-09-30T22:40:22.326Z,99.90
2018-09-30T22:42:56.990Z,99.90
2018-09-30T22:45:31.078Z,99.90
2018-09-30T22:48:05.829Z,99.90
2018-09-30T22:50:41.019Z,99.90
2018-09-30T22:53:15.179Z,99.90
2018-09-30T22:55:49.406Z,99.90
2018-09-30T22:58:23.861Z,99.90
2018-09-30T23:00:58.025Z,99.90
2018-09-30T23:03:32.359Z,99.90
2018-09-30T23:06:06.830Z,99.90
2018-09-30T23:08:41.151Z,99.90
2018-09-30T23:11:15.524Z,99.90
2018-09-30T23:13:49.649Z,99.90
2018-09-30T23:16:24.120Z,99.90
2018-09-30T23:18:58.593Z,99.90
2018-09-30T23:21:33.354Z,99.90
2018-09-30T23:24:07.792Z,99.90
2018-09-30T23:26:42.447Z,99.90
2018-09-30T23:29:17.174Z,99.90
2018-09-30T23:31:52.206Z,99.90
2018-09-30T23:34:27.009Z,99.90
2018-09-30T23:37:01.884Z,99.90
2018-09-30T23:39:36.644Z,99.90
2018-09-30T23:42:10.941Z,99.90
2018-09-30T23:44:45.399Z,99.90
2018-09-30T23:47:19.485Z,99.90
2018-09-30T23:49:53.655Z,99.90
2018-09-30T23:52:28.346Z,99.90
2018-09-30T23:55:02.567Z,99.90
2018-09-30T23:57:37.820Z,99.90
